createdAt,value
2023-04-17T00:09:51.014Z,45.90
2023-04-17T00:19:57.985Z,43.60
2023-04-17T00:30:05.264Z,45.00
2023-04-17T00:40:14.060Z,46.30
2023-04-17T00:50:19.937Z,57.80
2023-04-17T01:00:25.715Z,55.00
2023-04-17T01:10:32.856Z,40.30
2023-04-17T01:31:21.857Z,40.70
2023-04-17T01:41:29.796Z,61.10
2023-04-17T01:51:37.347Z,59.10
2023-04-17T02:01:44.447Z,36.20
2023-04-17T02:11:51.675Z,39.10
2023-04-17T02:21:58.652Z,35.50
2023-04-17T02:32:05.627Z,41.20
2023-04-17T02:42:12.800Z,53.60
2023-04-17T02:52:19.841Z,56.20
2023-04-17T03:02:27.754Z,47.00
2023-04-17T03:12:35.273Z,56.30
2023-04-17T03:22:42.582Z,44.30
2023-04-17T03:32:49.956Z,43.90
2023-04-17T03:42:56.127Z,44.90
2023-04-17T03:53:03.215Z,49.90
2023-04-17T04:03:10.324Z,64.70
2023-04-17T04:13:17.919Z,61.50
2023-04-17T04:23:25.186Z,48.30
2023-04-17T04:33:33.318Z,38.40
2023-04-17T04:43:40.672Z,41.90
2023-04-17T04:53:47.778Z,45.40
2023-04-17T05:03:55.136Z,46.70
2023-04-17T05:14:02.315Z,42.80
2023-04-17T05:24:07.363Z,46.00
2023-04-17T05:34:14.426Z,37.60
2023-04-17T05:44:21.489Z,41.40
2023-04-17T05:54:27.007Z,39.70
2023-04-17T06:04:34.586Z,41.10
2023-04-17T06:14:42.470Z,42.00
2023-04-17T06:24:49.759Z,44.30
2023-04-17T06:34:59.579Z,44.60
2023-04-17T06:45:07.270Z,43.20
2023-04-17T06:55:15.045Z,48.40
2023-04-17T07:05:22.232Z,50.30
2023-04-17T07:15:31.054Z,50.90
2023-04-17T07:25:37.130Z,46.20
2023-04-17T07:35:45.973Z,65.00
2023-04-17T07:45:53.789Z,56.40
2023-04-17T07:56:00.608Z,57.00
2023-04-17T08:06:08.723Z,43.40
2023-04-17T08:16:15.962Z,41.40
2023-04-17T08:26:23.335Z,38.60
2023-04-17T08:36:31.422Z,45.30
2023-04-17T08:46:41.054Z,45.60
2023-04-17T08:56:48.567Z,83.20
2023-04-17T09:06:54.754Z,41.80
2023-04-17T09:17:01.824Z,45.10
2023-04-17T09:27:20.535Z,43.00
2023-04-17T09:37:30.208Z,50.30
2023-04-17T09:47:37.945Z,41.00
2023-04-17T09:57:45.962Z,38.30
2023-04-17T10:07:53.279Z,42.00
2023-04-17T10:18:21.992Z,35.10
2023-04-17T10:28:47.782Z,35.80
2023-04-17T10:39:03.972Z,36.00
2023-04-17T10:49:12.245Z,28.40
2023-04-17T10:59:21.835Z,26.60
2023-04-17T11:09:29.789Z,23.40
2023-04-17T11:19:37.118Z,25.80
2023-04-17T11:29:45.874Z,23.40
2023-04-17T11:39:53.055Z,27.50
2023-04-17T11:50:00.424Z,22.80
2023-04-17T12:00:16.743Z,20.50
2023-04-17T12:10:24.811Z,19.70
2023-04-17T12:20:32.119Z,18.90
2023-04-17T12:30:40.020Z,19.40
2023-04-17T12:40:47.041Z,22.30
2023-04-17T12:50:54.730Z,20.20
2023-04-17T13:01:02.053Z,18.80
2023-04-17T13:11:09.400Z,18.70
2023-04-17T13:21:16.763Z,29.50
2023-04-17T13:31:23.786Z,23.80
2023-04-17T13:41:30.935Z,19.10
2023-04-17T13:51:37.059Z,18.50
2023-04-17T14:01:44.212Z,19.20
2023-04-17T14:11:51.613Z,21.40
2023-04-17T14:21:58.990Z,19.10
2023-04-17T14:32:06.670Z,17.40
2023-04-17T14:42:13.976Z,43.60
2023-04-17T14:52:21.608Z,17.90
2023-04-17T15:02:28.805Z,18.80
2023-04-17T15:12:36.847Z,14.80
2023-04-17T15:22:44.226Z,22.30
2023-04-17T15:32:51.528Z,26.20
2023-04-17T15:42:59.411Z,22.40
2023-04-17T15:53:08.913Z,20.50
2023-04-17T16:03:16.410Z,27.50
2023-04-17T16:13:23.776Z,17.80
2023-04-17T16:23:31.050Z,22.20
2023-04-17T16:33:39.920Z,31.10
2023-04-17T16:43:47.362Z,26.00
2023-04-17T16:53:54.707Z,26.60
2023-04-17T17:04:01.801Z,27.70
2023-04-17T17:14:09.033Z,32.30
2023-04-17T17:24:16.288Z,36.20
2023-04-17T17:34:26.496Z,27.00
2023-04-17T17:54:42.175Z,22.80
2023-04-17T18:04:49.621Z,18.30
2023-04-17T18:14:56.870Z,19.70
2023-04-17T18:25:02.666Z,20.20
2023-04-17T18:35:11.069Z,24.50
2023-04-17T18:45:18.239Z,20.60
2023-04-17T18:55:24.288Z,22.10
2023-04-17T19:05:31.410Z,17.00
2023-04-17T19:15:39.531Z,20.80
2023-04-17T19:25:52.526Z,19.40
2023-04-17T19:36:01.006Z,24.50
2023-04-17T19:46:08.835Z,24.70
2023-04-17T19:56:16.399Z,21.00
2023-04-17T20:06:23.429Z,22.50
2023-04-17T20:16:30.972Z,17.60
2023-04-17T20:26:38.154Z,22.10
2023-04-17T20:36:45.699Z,21.80
2023-04-17T20:46:52.740Z,18.10
2023-04-17T20:57:00.037Z,17.70
2023-04-17T21:07:06.975Z,17.20
2023-04-17T21:17:14.494Z,17.60
2023-04-17T21:27:21.656Z,14.70
2023-04-17T21:37:29.020Z,14.80
2023-04-17T22:07:53.680Z,17.70
2023-04-17T22:18:02.500Z,16.80
2023-04-17T22:28:08.963Z,12.30
2023-04-17T22:38:15.911Z,13.00
2023-04-17T22:48:24.520Z,10.90
2023-04-17T22:58:32.654Z,12.70
2023-04-17T23:08:40.229Z,8.90
2023-04-17T23:18:47.143Z,10.10
2023-04-17T23:28:54.453Z,11.90
2023-04-17T23:39:01.924Z,7.50
2023-04-17T23:49:10.076Z,10.50
2023-04-17T23:59:16.507Z,10.90
